createdAt,value
2019-04-14T00:00:05.366Z,75.17
2019-04-14T00:02:14.183Z,80.20
2019-04-14T00:04:26.852Z,79.62
2019-04-14T00:06:31.307Z,86.15
2019-04-14T00:08:35.472Z,83.90
2019-04-14T00:10:42.176Z,81.97
2019-04-14T00:12:47.033Z,92.60
2019-04-14T00:14:51.385Z,81.47
2019-04-14T00:16:55.394Z,97.62
2019-04-14T00:18:59.847Z,89.80
2019-04-14T00:21:04.443Z,80.67
2019-04-14T00:23:08.778Z,83.42
2019-04-14T00:25:13.062Z,79.95
2019-04-14T00:27:17.194Z,85.85
2019-04-14T00:29:21.776Z,82.10
2019-04-14T00:31:26.278Z,87.40
2019-04-14T00:33:30.250Z,85.15
2019-04-14T00:35:47.160Z,84.75
2019-04-14T00:38:10.888Z,87.22
2019-04-14T00:42:30.100Z,79.60
2019-04-14T00:44:41.144Z,83.17
2019-04-14T00:46:47.485Z,86.92
2019-04-14T00:48:51.784Z,82.85
2019-04-14T00:50:56.040Z,84.65
2019-04-14T00:53:01.140Z,91.72
2019-04-14T00:55:07.571Z,84.20
2019-04-14T00:57:11.623Z,90.12
2019-04-14T00:59:15.705Z,86.92
2019-04-14T01:01:26.468Z,80.83
2019-04-14T01:03:30.963Z,82.85
2019-04-14T01:05:35.967Z,84.40
2019-04-14T01:07:41.284Z,90.42
2019-04-14T01:09:46.272Z,92.57
2019-04-14T01:11:50.999Z,82.27
2019-04-14T01:13:55.117Z,91.17
2019-04-14T01:16:06.958Z,102.30
2019-04-14T01:18:05.681Z,89.83
2019-04-14T01:20:10.115Z,84.65
2019-04-14T01:22:14.225Z,84.90
2019-04-14T01:24:18.556Z,91.97
2019-04-14T01:26:22.600Z,80.87
2019-04-14T01:28:26.598Z,87.72
2019-04-14T01:30:30.651Z,90.47
2019-04-14T01:32:35.115Z,83.15
2019-04-14T01:34:39.176Z,81.75
2019-04-14T01:36:43.228Z,86.22
2019-04-14T01:38:47.167Z,102.47
2019-04-14T01:40:51.177Z,100.18
2019-04-14T01:42:55.059Z,81.05
2019-04-14T01:44:59.281Z,79.92
2019-04-14T01:47:03.311Z,87.42
2019-04-14T01:49:07.326Z,86.65
2019-04-14T01:51:28.862Z,84.75
2019-04-14T01:53:34.442Z,83.15
2019-04-14T01:55:41.630Z,96.63
2019-04-14T01:57:50.292Z,81.08
2019-04-14T01:59:54.680Z,87.25
2019-04-14T02:02:00.763Z,84.87
2019-04-14T02:04:05.002Z,82.62
2019-04-14T02:06:09.288Z,85.30
2019-04-14T02:08:13.511Z,85.05
2019-04-14T02:10:17.574Z,80.77
2019-04-14T02:12:23.524Z,87.47
2019-04-14T02:14:27.770Z,79.87
2019-04-14T02:16:39.521Z,81.15
2019-04-14T02:18:38.449Z,80.72
2019-04-14T02:20:42.648Z,89.47
2019-04-14T02:22:46.722Z,83.25
2019-04-14T02:24:50.575Z,85.87
2019-04-14T02:26:54.757Z,87.55
2019-04-14T02:28:59.233Z,92.75
2019-04-14T02:31:17.572Z,82.70
2019-04-14T02:33:40.800Z,80.60
2019-04-14T02:35:50.218Z,82.60
2019-04-14T02:37:54.467Z,78.10
2019-04-14T02:39:54.412Z,79.07
2019-04-14T02:42:12.544Z,80.10
2019-04-14T02:44:12.154Z,82.17
2019-04-14T02:48:31.492Z,79.07
2019-04-14T02:52:30.122Z,76.12
2019-04-14T02:54:46.681Z,79.32
2019-04-14T02:58:58.724Z,80.53
2019-04-14T03:01:01.848Z,79.27
2019-04-14T03:03:06.285Z,80.90
2019-04-14T03:05:04.123Z,91.05
2019-04-14T03:07:19.170Z,77.03
2019-04-14T03:09:23.957Z,83.58
2019-04-14T03:11:28.650Z,75.22
2019-04-14T03:13:28.754Z,79.80
2019-04-14T03:15:45.397Z,74.60
2019-04-14T03:18:52.678Z,73.78
2019-04-14T03:20:27.902Z,74.30
2019-04-14T03:24:37.464Z,69.05
2019-04-14T03:26:54.176Z,80.40
2019-04-14T03:28:59.016Z,74.32
2019-04-14T03:35:58.819Z,72.22
2019-04-14T03:41:37.267Z,76.45
2019-04-14T03:43:54.614Z,67.42
2019-04-14T03:46:09.679Z,73.57
2019-04-14T03:48:18.261Z,76.75
2019-04-14T03:50:08.382Z,72.95
2019-04-14T03:52:22.134Z,68.37
2019-04-14T03:54:20.658Z,69.65
2019-04-14T03:56:00.672Z,62.90
2019-04-14T03:58:01.215Z,74.72
2019-04-14T04:00:07.364Z,69.32
2019-04-14T04:02:11.796Z,66.60
2019-04-14T04:04:16.157Z,66.20
2019-04-14T04:06:20.370Z,72.82
2019-04-14T04:08:24.459Z,75.12
2019-04-14T04:10:29.228Z,71.97
2019-04-14T04:12:33.602Z,65.62
2019-04-14T04:14:37.756Z,69.45
2019-04-14T04:17:01.606Z,68.42
2019-04-14T04:19:13.004Z,69.55
2019-04-14T04:21:20.694Z,67.00
2019-04-14T04:23:27.079Z,69.53
2019-04-14T04:25:33.274Z,73.45
2019-04-14T04:27:56.953Z,66.75
2019-04-14T04:30:20.921Z,75.65
2019-04-14T04:32:27.505Z,75.12
2019-04-14T04:34:51.269Z,71.57
2019-04-14T04:37:15.347Z,72.78
2019-04-14T04:39:21.413Z,65.57
2019-04-14T04:41:25.459Z,66.17
2019-04-14T04:43:29.778Z,71.97
2019-04-14T04:45:34.148Z,72.05
2019-04-14T04:47:38.369Z,70.60
2019-04-14T04:49:42.614Z,68.65
2019-04-14T04:51:46.633Z,69.58
2019-04-14T04:53:50.570Z,69.12
2019-04-14T04:55:54.704Z,67.97
2019-04-14T04:57:59.136Z,66.10
2019-04-14T05:00:04.866Z,70.30
2019-04-14T05:02:09.399Z,68.90
2019-04-14T05:04:13.300Z,66.82
2019-04-14T05:06:43.743Z,66.97
2019-04-14T05:08:52.324Z,66.53
2019-04-14T05:10:58.868Z,64.00
2019-04-14T05:13:05.125Z,70.37
2019-04-14T05:15:16.733Z,69.75
2019-04-14T05:17:23.187Z,64.53
2019-04-14T05:19:32.894Z,66.75
2019-04-14T05:21:32.836Z,62.23
2019-04-14T05:23:36.794Z,66.30
2019-04-14T05:25:40.819Z,64.25
2019-04-14T05:27:45.203Z,66.80
2019-04-14T05:29:49.413Z,64.15
2019-04-14T05:31:53.328Z,61.50
2019-04-14T05:33:57.696Z,64.00
2019-04-14T05:36:02.096Z,62.50
2019-04-14T05:38:06.233Z,67.12
2019-04-14T05:40:10.483Z,67.22
2019-04-14T05:42:19.255Z,69.77
2019-04-14T05:44:20.785Z,64.17
2019-04-14T05:46:25.246Z,62.93
2019-04-14T05:48:29.479Z,66.53
2019-04-14T05:50:33.905Z,64.65
2019-04-14T05:52:38.209Z,64.62
2019-04-14T05:54:42.543Z,62.75
2019-04-14T05:56:47.099Z,60.85
2019-04-14T05:58:51.520Z,71.85
2019-04-14T06:00:55.801Z,55.25
2019-04-14T06:02:59.774Z,55.40
2019-04-14T06:05:03.952Z,55.63
2019-04-14T06:07:07.779Z,59.53
2019-04-14T06:09:11.695Z,53.70
2019-04-14T06:11:15.578Z,46.90
2019-04-14T06:13:19.429Z,56.75
2019-04-14T06:15:23.282Z,57.90
2019-04-14T06:17:27.215Z,53.35
2019-04-14T06:19:37.099Z,52.80
2019-04-14T06:21:36.633Z,54.50
2019-04-14T06:23:40.600Z,48.30
2019-04-14T06:25:44.519Z,50.25
2019-04-14T06:27:48.443Z,55.85
2019-04-14T06:29:53.884Z,54.00
2019-04-14T06:31:59.325Z,55.43
2019-04-14T06:34:04.858Z,51.58
2019-04-14T06:36:19.580Z,51.25
2019-04-14T06:38:25.065Z,58.15
2019-04-14T06:40:35.485Z,54.30
2019-04-14T06:42:39.260Z,50.83
2019-04-14T06:44:43.192Z,50.73
2019-04-14T06:46:47.098Z,50.23
2019-04-14T06:48:50.976Z,47.95
2019-04-14T06:50:54.881Z,45.50
2019-04-14T06:52:58.796Z,45.23
2019-04-14T06:55:02.694Z,43.42
2019-04-14T06:57:06.521Z,48.42
2019-04-14T06:59:10.427Z,44.83
2019-04-14T07:01:14.295Z,40.80
2019-04-14T07:03:18.120Z,39.98
2019-04-14T07:05:22.028Z,44.90
2019-04-14T07:07:25.948Z,41.60
2019-04-14T07:09:29.846Z,40.10
2019-04-14T07:11:33.957Z,38.67
2019-04-14T07:13:40.006Z,40.85
2019-04-14T07:15:43.411Z,39.30
2019-04-14T07:17:47.329Z,39.10
2019-04-14T07:20:01.240Z,39.92
2019-04-14T07:21:56.719Z,40.35
2019-04-14T07:24:00.592Z,38.88
2019-04-14T07:26:04.461Z,38.85
2019-04-14T07:28:08.375Z,42.48
2019-04-14T07:30:14.437Z,38.38
2019-04-14T07:32:25.836Z,37.65
2019-04-14T07:34:31.298Z,37.25
2019-04-14T07:36:39.457Z,33.53
2019-04-14T07:38:47.532Z,35.17
2019-04-14T07:41:05.307Z,35.92
2019-04-14T07:43:10.759Z,34.43
2019-04-14T07:45:18.986Z,36.20
2019-04-14T07:47:30.380Z,39.78
2019-04-14T07:49:44.900Z,36.80
2019-04-14T07:52:06.829Z,32.78
2019-04-14T07:54:15.055Z,35.65
2019-04-14T07:56:20.506Z,38.85
2019-04-14T07:58:28.700Z,37.58
2019-04-14T08:00:40.237Z,34.30
2019-04-14T08:02:48.341Z,32.70
2019-04-14T08:04:53.996Z,36.90
2019-04-14T08:06:57.863Z,36.25
2019-04-14T08:09:01.743Z,34.73
2019-04-14T08:11:05.751Z,38.63
2019-04-14T08:13:09.814Z,32.05
2019-04-14T08:15:14.538Z,34.58
2019-04-14T08:17:18.350Z,33.15
2019-04-14T08:19:22.229Z,33.98
2019-04-14T08:21:26.110Z,31.82
2019-04-14T08:23:30.033Z,30.97
2019-04-14T08:25:35.429Z,34.70
2019-04-14T08:27:42.184Z,37.25
2019-04-14T08:29:46.074Z,38.88
2019-04-14T08:31:50.083Z,33.73
2019-04-14T08:33:53.939Z,34.35
2019-04-14T08:35:57.896Z,30.92
2019-04-14T08:38:01.780Z,34.58
2019-04-14T08:40:06.481Z,31.02
2019-04-14T08:42:11.927Z,33.98
2019-04-14T08:44:26.458Z,34.15
2019-04-14T08:46:34.702Z,32.15
2019-04-14T08:48:55.402Z,33.53
2019-04-14T08:51:19.401Z,33.60
2019-04-14T08:53:27.756Z,35.17
2019-04-14T08:55:49.722Z,33.05
2019-04-14T08:57:58.286Z,35.85
2019-04-14T09:00:09.685Z,31.45
2019-04-14T09:02:15.236Z,38.10
2019-04-14T09:04:37.987Z,38.10
2019-04-14T09:06:52.686Z,36.73
2019-04-14T09:08:58.428Z,36.63
2019-04-14T09:11:06.993Z,35.15
2019-04-14T09:13:13.245Z,34.80
2019-04-14T09:15:17.247Z,34.98
2019-04-14T09:17:21.232Z,35.92
2019-04-14T09:19:25.958Z,34.45
2019-04-14T09:21:29.847Z,34.63
2019-04-14T09:23:33.850Z,35.70
2019-04-14T09:25:37.814Z,34.60
2019-04-14T09:27:42.016Z,29.98
2019-04-14T09:29:46.093Z,32.65
2019-04-14T09:31:50.132Z,36.38
2019-04-14T09:33:54.179Z,31.33
2019-04-14T09:35:58.179Z,36.05
2019-04-14T09:38:02.074Z,32.13
2019-04-14T09:40:06.195Z,37.85
2019-04-14T09:42:10.076Z,34.83
2019-04-14T09:44:14.012Z,31.80
2019-04-14T09:46:17.873Z,35.73
2019-04-14T09:48:21.773Z,35.28
2019-04-14T09:50:25.600Z,34.50
2019-04-14T09:52:29.608Z,38.30
2019-04-14T09:54:33.446Z,33.78
2019-04-14T09:56:37.445Z,33.18
2019-04-14T09:58:41.438Z,29.57
2019-04-14T10:00:45.399Z,38.13
2019-04-14T10:02:49.252Z,37.50
2019-04-14T10:04:53.276Z,33.10
2019-04-14T10:06:57.190Z,40.65
2019-04-14T10:09:01.101Z,34.83
2019-04-14T10:11:05.039Z,34.43
2019-04-14T10:13:08.875Z,35.75
2019-04-14T10:15:12.785Z,39.03
2019-04-14T10:17:16.710Z,33.92
2019-04-14T10:19:20.625Z,31.30
2019-04-14T10:21:27.710Z,31.10
2019-04-14T10:23:36.223Z,30.12
2019-04-14T10:25:44.327Z,33.23
2019-04-14T10:27:52.244Z,31.85
2019-04-14T10:29:56.398Z,31.05
2019-04-14T10:32:00.268Z,30.97
2019-04-14T10:34:04.414Z,31.40
2019-04-14T10:36:08.288Z,31.73
2019-04-14T10:38:12.159Z,29.65
2019-04-14T10:40:20.511Z,30.90
2019-04-14T10:42:29.747Z,31.77
2019-04-14T10:44:38.542Z,35.33
2019-04-14T10:46:46.843Z,31.60
2019-04-14T10:48:54.941Z,34.53
2019-04-14T10:50:59.083Z,31.12
2019-04-14T10:53:02.892Z,34.58
2019-04-14T10:55:07.675Z,31.95
2019-04-14T10:57:11.582Z,36.50
2019-04-14T10:59:15.506Z,36.15
2019-04-14T11:01:19.550Z,34.85
2019-04-14T11:03:23.421Z,32.45
2019-04-14T11:05:28.863Z,32.85
2019-04-14T11:07:32.818Z,35.30
2019-04-14T11:09:36.714Z,31.40
2019-04-14T11:11:40.627Z,33.78
2019-04-14T11:13:44.981Z,31.82
2019-04-14T11:15:48.820Z,31.62
2019-04-14T11:17:55.032Z,29.80
2019-04-14T11:19:58.977Z,32.20
2019-04-14T11:22:02.802Z,30.48
2019-04-14T11:24:07.154Z,29.60
2019-04-14T11:26:11.044Z,28.45
2019-04-14T11:28:14.927Z,31.52
2019-04-14T11:30:23.213Z,29.15
2019-04-14T11:32:46.849Z,27.32
2019-04-14T11:37:14.972Z,29.20
2019-04-14T11:39:22.270Z,25.80
2019-04-14T11:41:26.153Z,25.52
2019-04-14T11:43:30.043Z,25.85
2019-04-14T11:45:33.982Z,24.67
2019-04-14T11:47:37.823Z,26.73
2019-04-14T11:49:41.714Z,27.37
2019-04-14T11:51:55.150Z,29.52
2019-04-14T11:53:51.210Z,27.75
2019-04-14T11:55:55.091Z,26.70
2019-04-14T11:57:59.040Z,25.37
2019-04-14T12:00:07.392Z,26.10
2019-04-14T12:02:12.941Z,23.92
2019-04-14T12:04:32.208Z,26.45
2019-04-14T12:06:49.411Z,23.32
2019-04-14T12:08:54.969Z,23.42
2019-04-14T12:10:58.947Z,26.52
2019-04-14T12:13:02.998Z,26.82
2019-04-14T12:15:07.802Z,22.40
2019-04-14T12:17:11.758Z,25.92
2019-04-14T12:19:15.659Z,22.75
2019-04-14T12:21:19.529Z,25.43
2019-04-14T12:23:24.877Z,21.45
2019-04-14T12:25:28.750Z,23.85
2019-04-14T12:27:32.942Z,22.32
2019-04-14T12:29:36.922Z,26.00
2019-04-14T12:31:42.007Z,22.58
2019-04-14T12:33:45.997Z,24.37
2019-04-14T12:35:49.856Z,23.92
2019-04-14T12:37:53.780Z,26.77
2019-04-14T12:39:58.597Z,23.90
2019-04-14T12:42:04.018Z,21.97
2019-04-14T12:44:15.689Z,27.75
2019-04-14T12:46:21.137Z,24.87
2019-04-14T12:48:42.121Z,25.88
2019-04-14T12:50:50.608Z,23.15
2019-04-14T12:52:54.448Z,23.02
2019-04-14T12:54:59.122Z,24.80
2019-04-14T12:57:05.561Z,21.75
2019-04-14T12:59:11.026Z,24.98
2019-04-14T13:01:16.488Z,23.73
2019-04-14T13:03:20.942Z,25.08
2019-04-14T13:05:24.876Z,24.82
2019-04-14T13:07:28.774Z,23.35
2019-04-14T13:09:32.646Z,28.38
2019-04-14T13:11:36.491Z,26.70
2019-04-14T13:13:40.336Z,22.62
2019-04-14T13:15:44.407Z,26.40
2019-04-14T13:17:48.262Z,22.95
2019-04-14T13:19:52.237Z,23.42
2019-04-14T13:21:56.034Z,23.15
2019-04-14T13:23:59.970Z,20.68
2019-04-14T13:26:03.804Z,21.33
2019-04-14T13:28:07.749Z,20.90
2019-04-14T13:30:13.483Z,21.42
2019-04-14T13:32:17.467Z,18.35
2019-04-14T13:34:21.364Z,21.12
2019-04-14T13:36:25.242Z,20.32
2019-04-14T13:38:29.135Z,18.60
2019-04-14T13:40:33.048Z,19.60
2019-04-14T13:42:36.968Z,22.27
2019-04-14T13:44:40.823Z,19.62
2019-04-14T13:46:44.800Z,20.17
2019-04-14T13:48:48.616Z,20.65
2019-04-14T13:50:52.553Z,17.37
2019-04-14T13:52:59.079Z,20.48
2019-04-14T13:55:02.943Z,19.23
2019-04-14T13:57:06.807Z,17.90
2019-04-14T13:59:10.655Z,20.27
2019-04-14T14:01:14.587Z,16.90
2019-04-14T14:03:18.744Z,22.42
2019-04-14T14:05:22.658Z,20.27
2019-04-14T14:07:26.568Z,22.25
2019-04-14T14:09:30.514Z,22.98
2019-04-14T14:11:40.308Z,22.42
2019-04-14T14:13:51.688Z,23.30
2019-04-14T14:16:03.356Z,27.87
2019-04-14T14:18:27.147Z,20.17
2019-04-14T14:20:44.863Z,20.82
2019-04-14T14:22:59.572Z,20.60
2019-04-14T14:25:06.075Z,22.85
2019-04-14T14:27:11.241Z,19.98
2019-04-14T14:29:15.068Z,17.05
2019-04-14T14:31:20.488Z,21.07
2019-04-14T14:33:24.528Z,21.60
2019-04-14T14:35:28.447Z,18.15
2019-04-14T14:37:32.309Z,19.55
2019-04-14T14:39:36.599Z,16.52
2019-04-14T14:41:40.523Z,17.42
2019-04-14T14:43:44.532Z,17.92
2019-04-14T14:46:06.317Z,17.32
2019-04-14T14:48:17.739Z,17.55
2019-04-14T14:50:23.186Z,14.73
2019-04-14T14:52:27.027Z,20.12
2019-04-14T14:54:30.923Z,16.55
2019-04-14T14:56:34.821Z,16.77
2019-04-14T14:58:38.690Z,15.32
2019-04-14T15:00:42.620Z,14.83
2019-04-14T15:02:48.034Z,15.98
2019-04-14T15:04:51.990Z,16.15
2019-04-14T15:06:55.880Z,15.03
2019-04-14T15:08:59.779Z,17.30
2019-04-14T15:11:04.392Z,16.75
2019-04-14T15:13:08.414Z,17.37
2019-04-14T15:15:12.307Z,18.27
2019-04-14T15:17:16.160Z,13.80
2019-04-14T15:19:20.052Z,16.17
2019-04-14T15:21:23.952Z,16.07
2019-04-14T15:23:27.749Z,15.35
2019-04-14T15:25:31.552Z,14.93
2019-04-14T15:27:35.518Z,15.32
2019-04-14T15:29:39.422Z,14.18
2019-04-14T15:31:43.266Z,14.90
2019-04-14T15:33:47.150Z,19.30
2019-04-14T15:35:51.081Z,13.10
2019-04-14T15:37:54.972Z,15.00
2019-04-14T15:39:58.822Z,12.70
2019-04-14T15:42:02.726Z,15.98
2019-04-14T15:44:06.582Z,16.40
2019-04-14T15:46:10.581Z,15.28
2019-04-14T15:48:14.536Z,13.05
2019-04-14T15:50:18.398Z,20.25
2019-04-14T15:52:22.373Z,17.92
2019-04-14T15:54:27.739Z,14.78
2019-04-14T15:56:38.655Z,13.90
2019-04-14T15:59:02.280Z,16.73
2019-04-14T16:01:07.749Z,13.55
2019-04-14T16:03:21.823Z,14.07
2019-04-14T16:05:33.377Z,16.67
2019-04-14T16:07:38.879Z,13.85
2019-04-14T16:10:03.584Z,54.35
2019-04-14T16:12:11.968Z,23.65
2019-04-14T16:14:17.592Z,15.78
2019-04-14T16:16:32.036Z,15.00
2019-04-14T16:18:52.332Z,18.07
2019-04-14T16:20:56.186Z,17.73
2019-04-14T16:23:00.070Z,15.80
2019-04-14T16:25:04.667Z,14.35
2019-04-14T16:27:28.736Z,16.55
2019-04-14T16:29:39.904Z,15.05
2019-04-14T16:31:45.330Z,16.15
2019-04-14T16:34:07.119Z,13.88
2019-04-14T16:36:10.971Z,14.28
2019-04-14T16:38:14.861Z,14.38
2019-04-14T16:40:18.806Z,15.55
2019-04-14T16:42:22.797Z,17.25
2019-04-14T16:44:28.698Z,14.95
2019-04-14T16:46:32.526Z,14.35
2019-04-14T16:48:36.501Z,14.13
2019-04-14T16:50:40.420Z,14.38
2019-04-14T16:52:45.920Z,12.03
2019-04-14T16:54:54.375Z,12.07
2019-04-14T16:56:59.883Z,14.13
2019-04-14T16:59:05.342Z,14.25
2019-04-14T17:01:13.463Z,15.98
2019-04-14T17:03:17.376Z,15.93
2019-04-14T17:05:21.258Z,20.80
2019-04-14T17:07:25.095Z,22.70
2019-04-14T17:09:29.022Z,20.50
2019-04-14T17:11:34.023Z,19.15
2019-04-14T17:13:41.432Z,18.20
2019-04-14T17:15:46.719Z,14.63
2019-04-14T17:18:09.103Z,14.25
2019-04-14T17:20:26.819Z,15.93
2019-04-14T17:22:32.328Z,18.70
2019-04-14T17:24:38.841Z,18.45
2019-04-14T17:26:47.154Z,17.30
2019-04-14T17:28:55.587Z,15.90
2019-04-14T17:31:01.840Z,16.85
2019-04-14T17:33:19.604Z,15.23
2019-04-14T17:35:28.170Z,16.77
2019-04-14T17:37:45.893Z,15.60
2019-04-14T17:39:57.097Z,16.35
2019-04-14T17:42:08.587Z,19.80
2019-04-14T17:44:21.491Z,17.12
2019-04-14T17:46:35.851Z,19.10
2019-04-14T17:48:50.528Z,16.17
2019-04-14T17:50:59.101Z,16.30
2019-04-14T17:53:10.752Z,15.85
2019-04-14T17:55:29.351Z,16.17
2019-04-14T17:57:52.096Z,16.93
2019-04-14T18:00:06.373Z,16.77
2019-04-14T18:02:15.233Z,18.10
2019-04-14T18:04:20.874Z,18.37
2019-04-14T18:06:29.269Z,15.05
2019-04-14T18:08:49.906Z,16.50
2019-04-14T18:11:11.771Z,20.12
2019-04-14T18:13:17.236Z,19.23
2019-04-14T18:15:25.554Z,17.27
2019-04-14T18:17:47.807Z,19.12
2019-04-14T18:19:53.386Z,34.10
2019-04-14T18:21:58.297Z,30.68
2019-04-14T18:24:02.672Z,25.45
2019-04-14T18:26:07.820Z,19.07
2019-04-14T18:28:16.243Z,21.23
2019-04-14T18:30:30.572Z,19.77
2019-04-14T18:32:42.260Z,18.95
2019-04-14T18:35:04.270Z,17.15
2019-04-14T18:37:27.663Z,17.82
2019-04-14T18:39:45.100Z,17.87
2019-04-14T18:41:56.969Z,17.57
2019-04-14T18:44:18.441Z,17.57
2019-04-14T18:46:30.067Z,15.25
2019-04-14T18:48:38.296Z,15.05
2019-04-14T18:50:46.754Z,16.80
2019-04-14T18:53:01.444Z,15.95
2019-04-14T18:55:23.219Z,16.05
2019-04-14T18:57:43.819Z,15.40
2019-04-14T18:59:52.286Z,15.60
2019-04-14T19:01:57.633Z,17.85
2019-04-14T19:04:03.117Z,15.83
2019-04-14T19:06:06.995Z,18.92
2019-04-14T19:08:10.879Z,19.57
2019-04-14T19:10:14.866Z,20.45
2019-04-14T19:12:20.331Z,15.98
2019-04-14T19:14:31.761Z,13.62
2019-04-14T19:16:40.270Z,18.57
2019-04-14T19:18:45.912Z,17.62
2019-04-14T19:20:51.411Z,17.27
2019-04-14T19:22:55.376Z,17.67
2019-04-14T19:25:08.034Z,21.02
2019-04-14T19:27:04.907Z,15.83
2019-04-14T19:29:08.757Z,19.02
2019-04-14T19:31:12.677Z,21.12
2019-04-14T19:33:16.654Z,17.02
2019-04-14T19:35:20.584Z,17.07
2019-04-14T19:37:24.504Z,16.25
2019-04-14T19:39:28.351Z,19.50
2019-04-14T19:41:32.251Z,19.20
2019-04-14T19:43:36.174Z,19.40
2019-04-14T19:45:41.587Z,16.40
2019-04-14T19:47:45.481Z,17.15
2019-04-14T19:49:49.648Z,16.32
2019-04-14T19:51:53.511Z,17.20
2019-04-14T19:53:57.416Z,14.90
2019-04-14T19:56:01.248Z,15.95
2019-04-14T19:58:05.180Z,14.93
2019-04-14T20:00:09.342Z,16.45
2019-04-14T20:02:13.212Z,22.22
2019-04-14T20:04:17.061Z,16.65
2019-04-14T20:06:20.951Z,18.35
2019-04-14T20:08:24.931Z,16.40
2019-04-14T20:10:28.806Z,16.82
2019-04-14T20:12:32.666Z,17.85
2019-04-14T20:14:36.608Z,16.57
2019-04-14T20:16:54.134Z,13.72
2019-04-14T20:19:10.321Z,17.15
2019-04-14T20:21:15.756Z,17.15
2019-04-14T20:23:24.283Z,20.12
2019-04-14T20:25:37.443Z,16.55
2019-04-14T20:27:43.150Z,13.80
2019-04-14T20:29:54.508Z,18.55
2019-04-14T20:32:18.058Z,15.78
2019-04-14T20:36:24.920Z,17.30
2019-04-14T20:38:28.836Z,17.20
2019-04-14T20:40:32.737Z,16.90
2019-04-14T20:42:36.647Z,17.15
2019-04-14T20:44:40.452Z,14.55
2019-04-14T20:46:44.384Z,16.42
2019-04-14T20:48:48.218Z,17.07
2019-04-14T20:50:52.232Z,18.70
2019-04-14T20:52:56.130Z,19.55
2019-04-14T20:55:00.046Z,19.90
2019-04-14T20:57:04.002Z,14.98
2019-04-14T20:59:07.927Z,16.35
2019-04-14T21:01:13.097Z,16.85
2019-04-14T21:03:35.005Z,17.73
2019-04-14T21:05:40.711Z,17.23
2019-04-14T21:07:46.149Z,18.12
2019-04-14T21:09:54.295Z,19.10
2019-04-14T21:11:59.816Z,16.55
2019-04-14T21:14:14.516Z,17.37
2019-04-14T21:16:28.917Z,17.62
2019-04-14T21:18:34.414Z,16.97
2019-04-14T21:20:45.908Z,17.90
2019-04-14T21:22:54.067Z,19.50
2019-04-14T21:24:59.576Z,18.35
2019-04-14T21:27:21.548Z,18.62
2019-04-14T21:29:42.349Z,15.88
2019-04-14T21:31:47.863Z,20.12
2019-04-14T21:33:59.337Z,18.30
2019-04-14T21:36:10.568Z,19.90
2019-04-14T21:38:18.811Z,20.95
2019-04-14T21:40:24.401Z,19.42
2019-04-14T21:42:28.281Z,18.37
2019-04-14T21:44:32.191Z,19.27
2019-04-14T21:46:36.151Z,22.70
2019-04-14T21:48:40.046Z,16.75
2019-04-14T21:50:44.018Z,17.67
2019-04-14T21:52:49.816Z,16.37
2019-04-14T21:54:54.039Z,20.17
2019-04-14T21:57:14.605Z,17.10
2019-04-14T21:59:22.799Z,19.15
2019-04-14T22:01:52.481Z,22.27
2019-04-14T22:03:57.945Z,17.35
2019-04-14T22:06:19.691Z,17.77
2019-04-14T22:08:25.525Z,17.48
2019-04-14T22:10:36.520Z,18.55
2019-04-14T22:12:40.423Z,19.77
2019-04-14T22:14:44.256Z,20.40
2019-04-14T22:16:48.172Z,24.57
2019-04-14T22:18:52.169Z,21.00
2019-04-14T22:20:56.374Z,17.92
2019-04-14T22:23:01.338Z,19.50
2019-04-14T22:25:07.556Z,16.25
2019-04-14T22:27:11.400Z,17.45
2019-04-14T22:29:15.258Z,17.52
2019-04-14T22:31:19.196Z,20.02
2019-04-14T22:33:23.035Z,18.82
2019-04-14T22:35:26.863Z,22.90
2019-04-14T22:37:30.896Z,19.98
2019-04-14T22:39:35.068Z,18.75
2019-04-14T22:41:39.049Z,15.55
2019-04-14T22:43:42.980Z,20.90
2019-04-14T22:45:46.811Z,18.57
2019-04-14T22:47:50.740Z,19.23
2019-04-14T22:49:54.611Z,18.87
2019-04-14T22:51:58.484Z,20.62
2019-04-14T22:54:02.380Z,21.70
2019-04-14T22:56:06.405Z,19.85
2019-04-14T22:58:10.330Z,22.10
2019-04-14T23:00:24.136Z,19.15
2019-04-14T23:02:29.703Z,19.32
2019-04-14T23:04:51.347Z,16.93
2019-04-14T23:06:56.770Z,17.15
2019-04-14T23:09:02.298Z,17.20
2019-04-14T23:11:24.347Z,18.62
2019-04-14T23:13:32.772Z,20.90
2019-04-14T23:15:56.763Z,17.32
2019-04-14T23:18:08.501Z,17.65
2019-04-14T23:20:14.257Z,18.37
2019-04-14T23:22:25.708Z,19.40
2019-04-14T23:24:31.173Z,18.40
2019-04-14T23:26:35.119Z,18.82
2019-04-14T23:28:39.043Z,18.45
2019-04-14T23:30:42.873Z,19.62
2019-04-14T23:32:46.800Z,19.75
2019-04-14T23:34:50.669Z,20.10
2019-04-14T23:36:54.616Z,20.45
2019-04-14T23:38:58.460Z,24.67
2019-04-14T23:41:02.369Z,17.67
2019-04-14T23:43:06.304Z,22.52
2019-04-14T23:45:10.201Z,21.25
2019-04-14T23:47:14.080Z,18.05
2019-04-14T23:49:17.929Z,19.87
2019-04-14T23:51:21.767Z,18.70
2019-04-14T23:53:25.672Z,22.27
2019-04-14T23:55:29.522Z,17.65
2019-04-14T23:57:33.655Z,19.85
2019-04-14T23:59:37.578Z,18.27
